createdAt,value
2023-05-31T00:00:34.045Z,122.12
2023-05-31T00:01:34.079Z,119.39
2023-05-31T00:02:34.229Z,119.95
2023-05-31T00:03:34.221Z,120.52
2023-05-31T00:04:34.172Z,122.53
2023-05-31T00:05:34.181Z,119.97
2023-05-31T00:06:34.249Z,118.65
2023-05-31T00:07:34.215Z,117.89
2023-05-31T00:08:34.262Z,118.01
2023-05-31T00:09:34.276Z,120.52
2023-05-31T00:10:34.307Z,119.82
2023-05-31T00:11:34.311Z,117.99
2023-05-31T00:12:34.347Z,118.00
2023-05-31T00:13:34.403Z,118.05
2023-05-31T00:14:34.402Z,121.16
2023-05-31T00:15:34.401Z,117.97
2023-05-31T00:17:49.861Z,118.50
2023-05-31T00:18:35.508Z,119.03
2023-05-31T00:19:34.438Z,119.32
2023-05-31T00:20:34.516Z,118.58
2023-05-31T00:21:34.432Z,118.65
2023-05-31T00:22:34.417Z,118.32
2023-05-31T00:23:34.413Z,119.52
2023-05-31T00:24:34.399Z,117.70
2023-05-31T00:25:34.372Z,119.22
2023-05-31T00:26:34.401Z,118.06
2023-05-31T00:27:34.362Z,121.29
2023-05-31T00:28:34.426Z,118.48
2023-05-31T00:29:34.323Z,117.10
2023-05-31T00:30:34.447Z,116.67
2023-05-31T00:31:34.413Z,118.02
2023-05-31T00:32:34.340Z,115.49
2023-05-31T00:33:34.339Z,113.23
2023-05-31T00:34:34.294Z,117.78
2023-05-31T00:35:34.356Z,116.00
2023-05-31T00:36:34.370Z,118.25
2023-05-31T00:37:34.389Z,116.47
2023-05-31T00:38:34.441Z,114.31
2023-05-31T00:39:34.440Z,114.50
2023-05-31T00:40:34.503Z,115.46
2023-05-31T00:41:34.565Z,116.11
2023-05-31T00:42:34.586Z,115.24
2023-05-31T00:43:34.632Z,114.88
2023-05-31T00:44:34.648Z,114.12
2023-05-31T00:45:34.702Z,114.59
2023-05-31T00:46:34.698Z,112.84
2023-05-31T00:47:34.728Z,116.04
2023-05-31T00:48:34.796Z,114.60
2023-05-31T00:49:34.761Z,114.34
2023-05-31T00:50:34.779Z,114.38
2023-05-31T00:51:34.809Z,115.66
2023-05-31T00:52:34.849Z,115.54
2023-05-31T00:53:34.968Z,111.82
2023-05-31T00:54:34.905Z,114.20
2023-05-31T00:55:34.953Z,113.79
2023-05-31T00:56:34.987Z,115.45
2023-05-31T00:57:34.973Z,115.47
2023-05-31T00:58:35.017Z,113.23
2023-05-31T00:59:35.106Z,115.19
2023-05-31T01:00:35.094Z,114.63
2023-05-31T01:01:35.288Z,112.65
2023-05-31T01:02:35.197Z,114.25
2023-05-31T01:03:35.226Z,110.45
2023-05-31T01:04:35.215Z,112.65
2023-05-31T01:05:35.244Z,112.97
2023-05-31T01:06:35.259Z,114.73
2023-05-31T01:07:35.286Z,112.21
2023-05-31T01:08:35.345Z,112.96
2023-05-31T01:09:35.337Z,110.05
2023-05-31T01:10:35.400Z,112.26
2023-05-31T01:11:35.386Z,110.05
2023-05-31T01:12:35.452Z,110.10
2023-05-31T01:13:35.480Z,110.59
2023-05-31T01:14:35.534Z,112.61
2023-05-31T01:15:35.639Z,110.82
2023-05-31T01:16:35.753Z,111.75
2023-05-31T01:17:35.733Z,113.56
2023-05-31T01:18:35.685Z,111.62
2023-05-31T01:19:35.675Z,112.33
2023-05-31T01:20:35.883Z,110.95
2023-05-31T01:21:35.772Z,108.61
2023-05-31T01:22:35.806Z,110.66
2023-05-31T01:23:37.538Z,109.22
2023-05-31T01:24:35.899Z,109.62
2023-05-31T01:25:36.006Z,109.88
2023-05-31T01:26:35.991Z,107.98
2023-05-31T01:27:36.050Z,110.55
2023-05-31T01:28:36.021Z,110.46
2023-05-31T01:29:36.087Z,109.51
2023-05-31T01:30:36.122Z,108.05
2023-05-31T01:31:36.288Z,111.81
2023-05-31T01:32:36.237Z,110.79
2023-05-31T01:33:36.207Z,109.99
2023-05-31T01:34:36.234Z,107.50
2023-05-31T01:35:36.301Z,108.27
2023-05-31T01:36:36.315Z,109.34
2023-05-31T01:37:36.338Z,107.54
2023-05-31T01:38:36.384Z,105.99
2023-05-31T01:39:36.387Z,109.10
2023-05-31T01:40:36.454Z,110.09
2023-05-31T01:41:36.446Z,109.03
2023-05-31T01:42:36.523Z,107.11
2023-05-31T01:43:36.542Z,107.30
2023-05-31T01:44:36.577Z,108.86
2023-05-31T01:45:36.660Z,108.37
2023-05-31T01:46:36.666Z,106.29
2023-05-31T01:47:36.696Z,108.10
2023-05-31T01:48:36.750Z,105.88
2023-05-31T01:49:36.744Z,106.82
2023-05-31T01:50:36.816Z,103.60
2023-05-31T01:51:36.831Z,105.66
2023-05-31T01:52:36.852Z,106.01
2023-05-31T01:53:36.897Z,106.58
2023-05-31T01:54:36.923Z,104.54
2023-05-31T01:55:36.929Z,107.56
2023-05-31T01:56:36.965Z,104.91
2023-05-31T01:57:36.999Z,106.10
2023-05-31T01:58:37.054Z,105.31
2023-05-31T01:59:37.112Z,106.13
2023-05-31T02:00:37.147Z,108.60
2023-05-31T02:01:37.267Z,107.85
2023-05-31T02:02:37.239Z,105.11
2023-05-31T02:03:37.251Z,105.26
2023-05-31T02:04:37.269Z,103.85
2023-05-31T02:05:37.308Z,105.65
2023-05-31T02:06:37.356Z,105.27
2023-05-31T02:07:37.396Z,104.35
2023-05-31T02:08:37.383Z,104.40
2023-05-31T02:09:37.445Z,104.68
2023-05-31T02:10:37.474Z,103.80
2023-05-31T02:11:37.514Z,106.87
2023-05-31T02:12:37.611Z,107.34
2023-05-31T02:13:37.618Z,105.57
2023-05-31T02:14:37.663Z,103.98
2023-05-31T02:15:37.691Z,101.02
2023-05-31T02:16:37.749Z,101.61
2023-05-31T02:17:37.749Z,102.48
2023-05-31T02:18:37.795Z,103.94
2023-05-31T02:19:37.831Z,104.00
2023-05-31T02:20:37.878Z,101.31
2023-05-31T02:21:37.907Z,101.19
2023-05-31T02:22:37.947Z,104.17
2023-05-31T02:23:37.989Z,100.68
2023-05-31T02:24:38.022Z,102.98
2023-05-31T02:25:38.049Z,103.72
2023-05-31T02:26:38.126Z,101.79
2023-05-31T02:27:38.109Z,102.49
2023-05-31T02:28:38.159Z,101.35
2023-05-31T02:29:38.194Z,105.98
2023-05-31T02:30:38.238Z,102.60
2023-05-31T02:31:38.390Z,101.28
2023-05-31T02:32:38.462Z,101.86
2023-05-31T02:33:38.380Z,100.41
2023-05-31T02:34:38.425Z,102.44
2023-05-31T02:35:38.453Z,99.80
2023-05-31T02:36:38.461Z,102.35
2023-05-31T02:37:38.531Z,99.01
2023-05-31T02:38:38.619Z,102.04
2023-05-31T02:39:38.585Z,101.41
2023-05-31T02:40:38.671Z,98.58
2023-05-31T02:41:38.696Z,100.47
2023-05-31T02:42:38.739Z,96.19
2023-05-31T02:43:38.803Z,101.54
2023-05-31T02:44:38.868Z,99.62
2023-05-31T02:45:38.865Z,100.36
2023-05-31T02:46:38.958Z,99.14
2023-05-31T02:47:39.030Z,101.08
2023-05-31T02:48:39.029Z,98.58
2023-05-31T02:49:39.056Z,100.00
2023-05-31T02:50:39.091Z,101.86
2023-05-31T02:51:39.189Z,98.91
2023-05-31T02:52:39.201Z,98.27
2023-05-31T02:53:39.226Z,98.13
2023-05-31T02:54:39.305Z,97.44
2023-05-31T02:55:39.317Z,98.27
2023-05-31T02:56:39.347Z,97.10
2023-05-31T02:57:39.407Z,96.82
2023-05-31T02:58:39.440Z,97.45
2023-05-31T02:59:39.487Z,97.82
2023-05-31T03:00:39.574Z,97.61
2023-05-31T03:01:39.633Z,98.34
2023-05-31T03:02:39.786Z,98.64
2023-05-31T03:03:39.706Z,94.12
2023-05-31T03:04:39.713Z,96.70
2023-05-31T03:05:39.789Z,99.28
2023-05-31T03:06:39.791Z,95.42
2023-05-31T03:07:39.848Z,95.50
2023-05-31T03:08:39.890Z,96.24
2023-05-31T03:09:39.924Z,98.60
2023-05-31T03:10:39.964Z,96.91
2023-05-31T03:11:40.017Z,97.30
2023-05-31T03:12:40.087Z,97.62
2023-05-31T03:13:40.124Z,99.64
2023-05-31T03:14:40.193Z,97.19
2023-05-31T03:15:40.218Z,93.10
2023-05-31T03:16:40.322Z,94.32
2023-05-31T03:17:40.328Z,95.39
2023-05-31T03:18:40.367Z,93.63
2023-05-31T03:19:40.401Z,95.73
2023-05-31T03:20:40.540Z,96.25
2023-05-31T03:21:40.525Z,94.78
2023-05-31T03:22:40.543Z,96.21
2023-05-31T03:23:40.577Z,93.43
2023-05-31T03:24:40.621Z,96.75
2023-05-31T03:25:40.653Z,91.71
2023-05-31T03:26:40.711Z,95.33
2023-05-31T03:27:40.748Z,94.79
2023-05-31T03:28:40.807Z,93.30
2023-05-31T03:29:40.867Z,92.92
2023-05-31T03:30:40.877Z,95.10
2023-05-31T03:31:40.973Z,92.82
2023-05-31T03:32:41.022Z,92.92
2023-05-31T03:33:41.000Z,92.56
2023-05-31T03:34:41.052Z,91.58
2023-05-31T03:35:41.075Z,93.11
2023-05-31T03:36:41.120Z,92.33
2023-05-31T03:37:41.170Z,93.62
2023-05-31T03:38:41.223Z,92.93
2023-05-31T03:39:41.291Z,91.75
2023-05-31T03:40:41.316Z,90.95
2023-05-31T03:41:41.389Z,90.49
2023-05-31T03:42:41.503Z,91.81
2023-05-31T03:43:41.510Z,92.06
2023-05-31T03:44:41.561Z,91.22
2023-05-31T03:45:41.621Z,91.01
2023-05-31T03:46:41.654Z,92.84
2023-05-31T03:47:41.841Z,91.35
2023-05-31T03:48:41.721Z,93.42
2023-05-31T03:49:41.796Z,90.70
2023-05-31T03:50:41.857Z,90.55
2023-05-31T03:51:41.865Z,92.95
2023-05-31T03:52:41.924Z,89.09
2023-05-31T03:53:41.988Z,91.80
2023-05-31T03:54:42.018Z,90.96
2023-05-31T03:55:42.035Z,89.95
2023-05-31T03:56:42.104Z,89.75
2023-05-31T03:57:42.149Z,90.98
2023-05-31T03:58:42.190Z,90.78
2023-05-31T03:59:42.230Z,88.37
2023-05-31T04:00:42.282Z,89.69
2023-05-31T04:01:42.362Z,89.40
2023-05-31T04:02:52.055Z,89.72
2023-05-31T04:03:43.480Z,90.01
2023-05-31T04:04:42.500Z,90.14
2023-05-31T04:05:42.378Z,89.73
2023-05-31T04:06:42.353Z,90.13
2023-05-31T04:07:42.327Z,90.22
2023-05-31T04:08:42.345Z,91.73
2023-05-31T04:09:42.328Z,87.53
2023-05-31T04:10:42.315Z,87.05
2023-05-31T04:11:42.342Z,86.77
2023-05-31T04:12:42.305Z,88.58
2023-05-31T04:13:42.336Z,88.90
2023-05-31T04:14:42.384Z,87.80
2023-05-31T04:15:42.455Z,88.86
2023-05-31T04:16:42.497Z,89.71
2023-05-31T04:17:42.492Z,85.58
2023-05-31T04:18:42.551Z,89.15
2023-05-31T04:19:42.578Z,87.41
2023-05-31T04:20:42.686Z,87.53
2023-05-31T04:21:42.661Z,90.59
2023-05-31T04:22:42.701Z,86.38
2023-05-31T04:23:42.745Z,83.42
2023-05-31T04:24:42.792Z,87.08
2023-05-31T04:25:42.846Z,85.95
2023-05-31T04:26:42.879Z,86.75
2023-05-31T04:27:42.904Z,87.44
2023-05-31T04:28:43.000Z,87.36
2023-05-31T04:29:43.043Z,86.84
2023-05-31T04:30:43.161Z,84.57
2023-05-31T04:32:44.144Z,87.84
2023-05-31T04:33:43.114Z,87.76
2023-05-31T04:34:43.091Z,88.23
2023-05-31T04:35:43.104Z,86.78
2023-05-31T04:36:43.068Z,87.07
2023-05-31T04:37:43.082Z,85.64
2023-05-31T04:38:43.046Z,88.16
2023-05-31T04:39:43.060Z,86.06
2023-05-31T04:40:43.022Z,86.68
2023-05-31T04:41:43.034Z,87.07
2023-05-31T04:42:43.088Z,86.65
2023-05-31T04:43:43.020Z,86.45
2023-05-31T04:44:43.099Z,83.91
2023-05-31T04:45:43.160Z,87.39
2023-05-31T04:46:43.177Z,85.62
2023-05-31T04:47:43.278Z,86.63
2023-05-31T04:48:43.274Z,83.54
2023-05-31T04:50:43.373Z,85.31
2023-05-31T04:51:43.448Z,85.69
2023-05-31T04:52:43.447Z,79.08
2023-05-31T04:53:43.461Z,77.98
2023-05-31T04:54:43.533Z,80.69
2023-05-31T04:55:43.546Z,84.96
2023-05-31T04:56:43.637Z,80.44
2023-05-31T04:57:43.666Z,71.62
2023-05-31T04:58:43.694Z,73.88
2023-05-31T04:59:43.756Z,74.03
2023-05-31T05:00:43.787Z,72.17
2023-05-31T05:01:44.095Z,76.54
2023-05-31T05:02:43.966Z,72.33
2023-05-31T05:03:44.034Z,82.23
2023-05-31T05:04:43.998Z,91.29
2023-05-31T05:05:44.049Z,100.24
2023-05-31T05:06:44.075Z,90.46
2023-05-31T05:07:44.145Z,90.06
2023-05-31T05:08:44.177Z,92.40
2023-05-31T05:09:44.223Z,96.12
2023-05-31T05:10:44.293Z,93.30
2023-05-31T05:11:44.376Z,95.22
2023-05-31T05:12:44.353Z,111.03
2023-05-31T05:13:44.418Z,93.49
2023-05-31T05:14:44.503Z,96.52
2023-05-31T05:15:44.539Z,102.91
2023-05-31T05:16:44.680Z,103.74
2023-05-31T05:17:44.656Z,100.13
2023-05-31T05:18:44.692Z,101.42
2023-05-31T05:19:44.747Z,103.19
2023-05-31T05:20:44.852Z,101.55
2023-05-31T05:21:44.858Z,100.51
2023-05-31T05:22:44.900Z,94.31
2023-05-31T05:23:44.978Z,99.76
2023-05-31T05:24:44.994Z,96.24
2023-05-31T05:25:45.086Z,96.89
2023-05-31T05:26:45.113Z,94.21
2023-05-31T05:27:45.171Z,92.89
2023-05-31T05:28:45.238Z,92.40
2023-05-31T05:29:45.288Z,92.34
2023-05-31T05:30:45.393Z,93.57
2023-05-31T05:31:45.441Z,93.75
2023-05-31T05:32:45.504Z,92.46
2023-05-31T05:33:45.570Z,87.62
2023-05-31T05:34:45.618Z,86.12
2023-05-31T05:35:45.642Z,87.42
2023-05-31T05:36:45.717Z,85.51
2023-05-31T05:37:45.781Z,86.97
2023-05-31T05:38:45.843Z,83.06
2023-05-31T05:39:46.604Z,81.36
2023-05-31T05:40:46.236Z,80.35
2023-05-31T05:41:46.674Z,80.36
2023-05-31T05:42:46.172Z,78.59
2023-05-31T05:43:46.310Z,79.09
2023-05-31T05:44:46.117Z,76.57
2023-05-31T05:45:46.199Z,78.57
2023-05-31T05:46:46.590Z,75.34
2023-05-31T05:47:46.524Z,79.25
2023-05-31T05:48:46.402Z,79.03
2023-05-31T05:49:46.420Z,81.92
2023-05-31T05:50:46.468Z,88.07
2023-05-31T05:51:46.537Z,87.40
2023-05-31T05:52:46.585Z,86.53
2023-05-31T05:53:46.662Z,81.80
2023-05-31T05:54:46.677Z,74.51
2023-05-31T05:55:46.756Z,72.34
2023-05-31T05:56:46.871Z,69.12
2023-05-31T05:57:46.854Z,74.81
2023-05-31T05:58:46.929Z,87.91
2023-05-31T05:59:46.941Z,95.76
2023-05-31T06:00:47.056Z,105.32
2023-05-31T06:01:47.107Z,109.89
2023-05-31T06:02:47.231Z,122.17
2023-05-31T06:03:47.232Z,136.65
2023-05-31T06:04:47.215Z,145.89
2023-05-31T06:05:47.279Z,150.52
2023-05-31T06:06:47.288Z,146.18
2023-05-31T06:07:47.337Z,144.37
2023-05-31T06:08:47.370Z,146.87
2023-05-31T06:09:47.421Z,145.24
2023-05-31T06:10:47.439Z,149.96
2023-05-31T06:11:47.467Z,151.35
2023-05-31T06:12:47.496Z,146.46
2023-05-31T06:13:47.516Z,143.67
2023-05-31T06:14:47.558Z,148.99
2023-05-31T06:15:47.554Z,145.68
2023-05-31T06:16:47.643Z,149.78
2023-05-31T06:17:47.589Z,148.40
2023-05-31T06:18:47.593Z,150.77
2023-05-31T06:19:47.634Z,155.21
2023-05-31T06:20:47.688Z,154.54
2023-05-31T06:21:48.123Z,151.46
2023-05-31T06:22:48.680Z,155.33
2023-05-31T06:23:47.632Z,157.27
2023-05-31T06:24:47.668Z,160.65
2023-05-31T06:25:47.658Z,163.44
2023-05-31T06:26:47.688Z,160.92
2023-05-31T06:27:47.657Z,163.33
2023-05-31T06:28:47.707Z,161.13
2023-05-31T06:29:47.674Z,165.64
2023-05-31T06:30:47.726Z,168.34
2023-05-31T06:31:47.766Z,169.51
2023-05-31T06:32:47.729Z,170.58
2023-05-31T06:33:47.750Z,166.76
2023-05-31T06:34:47.715Z,163.10
2023-05-31T06:35:47.704Z,153.62
2023-05-31T06:36:47.721Z,159.79
2023-05-31T06:37:47.714Z,163.68
2023-05-31T06:38:47.730Z,169.91
2023-05-31T06:39:47.792Z,167.67
2023-05-31T06:40:47.714Z,161.18
2023-05-31T06:41:47.733Z,165.26
2023-05-31T06:42:47.700Z,165.48
2023-05-31T06:43:47.721Z,168.18
2023-05-31T06:44:56.205Z,168.89
2023-05-31T06:45:48.712Z,169.18
2023-05-31T06:46:47.693Z,169.73
2023-05-31T06:47:47.726Z,171.96
2023-05-31T06:48:49.218Z,171.41
2023-05-31T06:49:48.691Z,169.24
2023-05-31T06:50:47.670Z,169.46
2023-05-31T06:51:47.642Z,169.95
2023-05-31T06:52:47.691Z,171.69
2023-05-31T06:53:47.642Z,173.39
2023-05-31T06:54:47.625Z,169.48
2023-05-31T06:55:47.644Z,170.53
2023-05-31T06:56:47.622Z,171.77
2023-05-31T06:57:47.619Z,166.04
2023-05-31T06:58:47.584Z,146.75
2023-05-31T06:59:47.569Z,158.53
2023-05-31T07:00:47.869Z,166.84
2023-05-31T07:01:47.648Z,172.11
2023-05-31T07:02:47.623Z,173.88
2023-05-31T07:03:47.659Z,174.59
2023-05-31T07:04:47.557Z,176.75
2023-05-31T07:05:47.548Z,181.74
2023-05-31T07:06:47.551Z,182.29
2023-05-31T07:07:47.546Z,184.64
2023-05-31T07:08:47.531Z,182.28
2023-05-31T07:09:47.538Z,182.20
2023-05-31T07:10:47.543Z,180.54
2023-05-31T07:11:47.608Z,185.85
2023-05-31T07:12:47.524Z,187.38
2023-05-31T07:13:47.513Z,189.30
2023-05-31T07:14:47.535Z,185.92
2023-05-31T07:15:47.630Z,189.53
2023-05-31T07:16:47.643Z,186.95
2023-05-31T07:17:47.713Z,182.87
2023-05-31T07:18:47.700Z,174.60
2023-05-31T07:19:47.733Z,180.47
2023-05-31T07:20:47.871Z,171.66
2023-05-31T07:21:48.125Z,177.25
2023-05-31T07:22:47.904Z,182.63
2023-05-31T07:23:47.918Z,186.66
2023-05-31T07:24:48.020Z,186.02
2023-05-31T07:25:48.051Z,186.94
2023-05-31T07:26:48.123Z,188.77
2023-05-31T07:27:48.174Z,188.58
2023-05-31T07:28:48.244Z,178.05
2023-05-31T07:29:48.257Z,149.80
2023-05-31T07:30:48.275Z,144.24
2023-05-31T07:31:48.264Z,160.70
2023-05-31T07:32:48.372Z,157.30
2023-05-31T07:33:48.304Z,169.63
2023-05-31T07:35:02.744Z,169.99
2023-05-31T07:35:57.634Z,170.27
2023-05-31T07:36:49.275Z,170.56
2023-05-31T07:37:48.317Z,172.14
2023-05-31T07:38:48.285Z,173.63
2023-05-31T07:39:48.284Z,176.54
2023-05-31T07:40:48.258Z,180.27
2023-05-31T07:41:48.696Z,177.74
2023-05-31T07:42:48.243Z,177.81
2023-05-31T07:43:48.252Z,179.96
2023-05-31T07:44:48.226Z,174.60
2023-05-31T07:45:48.263Z,177.58
2023-05-31T07:46:48.207Z,174.93
2023-05-31T07:47:48.253Z,169.96
2023-05-31T07:48:48.922Z,164.89
2023-05-31T07:49:48.190Z,158.78
2023-05-31T07:50:48.166Z,162.76
2023-05-31T07:51:48.656Z,151.14
2023-05-31T07:52:48.220Z,159.52
2023-05-31T07:53:48.190Z,158.93
2023-05-31T07:54:48.181Z,165.34
2023-05-31T07:55:49.254Z,165.68
2023-05-31T07:56:48.161Z,167.45
2023-05-31T07:57:48.162Z,171.44
2023-05-31T07:58:48.122Z,170.44
2023-05-31T07:59:48.169Z,181.02
2023-05-31T08:00:48.172Z,185.21
2023-05-31T08:01:48.184Z,179.23
2023-05-31T08:02:48.231Z,181.97
2023-05-31T08:03:48.177Z,174.17
2023-05-31T08:04:48.214Z,181.25
2023-05-31T08:05:49.309Z,185.27
2023-05-31T08:06:48.363Z,178.35
2023-05-31T08:07:48.388Z,174.11
2023-05-31T08:08:48.609Z,180.08
2023-05-31T08:09:48.561Z,189.13
2023-05-31T08:10:48.603Z,191.71
2023-05-31T08:11:48.652Z,190.50
2023-05-31T08:12:48.660Z,191.34
2023-05-31T08:13:48.729Z,183.20
2023-05-31T08:14:48.778Z,187.30
2023-05-31T08:15:48.857Z,183.47
2023-05-31T08:16:49.214Z,183.17
2023-05-31T08:17:49.081Z,184.91
2023-05-31T08:18:49.023Z,189.31
2023-05-31T08:19:49.084Z,183.80
2023-05-31T08:20:49.182Z,178.97
2023-05-31T08:21:49.165Z,168.96
2023-05-31T08:22:49.218Z,178.44
2023-05-31T08:23:49.257Z,181.00
2023-05-31T08:24:49.296Z,185.11
2023-05-31T08:25:49.358Z,160.42
2023-05-31T08:26:49.660Z,166.30
2023-05-31T08:27:49.430Z,148.80
2023-05-31T08:28:49.429Z,152.95
2023-05-31T08:29:49.479Z,166.08
2023-05-31T08:30:49.741Z,164.64
2023-05-31T08:31:49.680Z,184.22
2023-05-31T08:32:49.583Z,185.83
2023-05-31T08:33:49.586Z,172.24
2023-05-31T08:34:49.649Z,181.35
2023-05-31T08:35:49.650Z,161.93
2023-05-31T08:36:49.685Z,173.87
2023-05-31T08:37:49.707Z,166.49
2023-05-31T08:38:49.770Z,182.25
2023-05-31T08:39:49.762Z,162.03
2023-05-31T08:40:49.796Z,175.84
2023-05-31T08:41:50.157Z,165.71
2023-05-31T08:42:49.806Z,148.23
2023-05-31T08:43:49.805Z,157.58
2023-05-31T08:44:49.850Z,135.56
2023-05-31T08:45:49.868Z,154.38
2023-05-31T08:46:49.927Z,171.67
2023-05-31T08:47:49.919Z,169.94
2023-05-31T08:48:49.898Z,150.74
2023-05-31T08:49:49.927Z,146.10
2023-05-31T08:50:51.865Z,143.97
2023-05-31T08:51:50.179Z,129.14
2023-05-31T08:52:49.976Z,132.10
2023-05-31T08:53:49.959Z,108.55
2023-05-31T08:54:49.993Z,124.55
2023-05-31T08:55:49.931Z,103.99
2023-05-31T08:56:50.178Z,104.97
2023-05-31T08:57:49.935Z,93.06
2023-05-31T08:58:49.914Z,85.30
2023-05-31T08:59:49.928Z,88.56
2023-05-31T09:00:49.898Z,81.83
2023-05-31T09:01:49.953Z,62.09
2023-05-31T09:02:49.912Z,59.73
2023-05-31T09:03:49.911Z,72.07
2023-05-31T09:04:49.896Z,58.89
2023-05-31T09:05:49.824Z,56.51
2023-05-31T09:06:49.866Z,42.98
2023-05-31T09:07:49.876Z,70.61
2023-05-31T09:08:49.896Z,41.81
2023-05-31T09:09:49.839Z,49.10
2023-05-31T09:10:49.792Z,41.80
2023-05-31T09:11:49.820Z,52.03
2023-05-31T09:12:49.812Z,25.00
2023-05-31T09:13:49.770Z,39.61
2023-05-31T09:14:49.833Z,31.27
2023-05-31T09:15:49.771Z,29.21
2023-05-31T09:16:49.834Z,34.20
2023-05-31T09:17:49.777Z,24.92
2023-05-31T09:18:49.748Z,48.52
2023-05-31T09:19:49.764Z,30.81
2023-05-31T09:20:49.806Z,41.24
2023-05-31T09:21:49.737Z,41.33
2023-05-31T09:22:49.727Z,42.21
2023-05-31T09:23:49.711Z,37.24
2023-05-31T09:24:49.695Z,31.20
2023-05-31T09:25:49.713Z,41.02
2023-05-31T09:26:49.696Z,33.26
2023-05-31T09:27:49.678Z,49.94
2023-05-31T09:28:49.680Z,38.32
2023-05-31T09:29:49.669Z,48.66
2023-05-31T09:30:49.670Z,56.80
2023-05-31T09:31:49.746Z,51.94
2023-05-31T09:32:49.666Z,34.76
2023-05-31T09:33:49.681Z,38.92
2023-05-31T09:34:49.670Z,25.25
2023-05-31T09:35:49.674Z,61.11
2023-05-31T09:36:49.705Z,56.96
2023-05-31T09:37:49.600Z,46.80
2023-05-31T09:38:49.674Z,43.66
2023-05-31T09:39:49.596Z,41.42
2023-05-31T09:40:49.600Z,36.99
2023-05-31T09:41:49.708Z,30.33
2023-05-31T09:42:49.575Z,47.07
2023-05-31T09:43:49.569Z,55.92
2023-05-31T09:44:50.165Z,59.69
2023-05-31T09:45:49.574Z,56.90
2023-05-31T09:46:49.769Z,50.16
2023-05-31T09:47:49.605Z,64.28
2023-05-31T09:48:49.554Z,65.67
2023-05-31T09:49:49.527Z,84.51
2023-05-31T09:50:49.497Z,93.58
2023-05-31T09:51:49.776Z,92.71
2023-05-31T09:52:49.510Z,92.56
2023-05-31T09:53:49.471Z,92.96
2023-05-31T09:54:49.494Z,100.22
2023-05-31T09:55:49.521Z,77.15
2023-05-31T09:56:49.476Z,75.69
2023-05-31T09:57:49.465Z,64.02
2023-05-31T09:58:49.452Z,76.83
2023-05-31T09:59:49.464Z,95.30
2023-05-31T10:00:49.431Z,81.06
2023-05-31T10:01:49.789Z,65.56
2023-05-31T10:02:49.555Z,88.99
2023-05-31T10:03:49.430Z,81.67
2023-05-31T10:04:49.424Z,52.64
2023-05-31T10:05:49.392Z,68.83
2023-05-31T10:06:49.729Z,59.50
2023-05-31T10:07:49.584Z,61.06
2023-05-31T10:08:49.408Z,60.25
2023-05-31T10:09:49.363Z,76.57
2023-05-31T10:10:49.384Z,63.37
2023-05-31T10:11:49.744Z,57.86
2023-05-31T10:12:49.383Z,50.10
2023-05-31T10:13:49.347Z,46.44
2023-05-31T10:14:49.383Z,47.29
2023-05-31T10:15:49.357Z,50.21
2023-05-31T10:16:49.792Z,35.60
2023-05-31T10:17:49.342Z,36.92
2023-05-31T10:18:49.307Z,44.41
2023-05-31T10:19:49.310Z,50.38
2023-05-31T10:20:49.381Z,48.73
2023-05-31T10:21:49.315Z,54.14
2023-05-31T10:22:49.294Z,50.12
2023-05-31T10:23:49.269Z,51.94
2023-05-31T10:24:49.660Z,39.18
2023-05-31T10:25:50.238Z,38.15
2023-05-31T10:26:49.246Z,36.16
2023-05-31T10:27:49.260Z,52.92
2023-05-31T10:28:49.273Z,66.49
2023-05-31T10:29:49.263Z,45.86
2023-05-31T10:30:49.317Z,40.24
2023-05-31T10:31:49.756Z,41.14
2023-05-31T10:32:49.258Z,25.38
2023-05-31T10:33:49.194Z,56.10
2023-05-31T10:34:49.234Z,52.83
2023-05-31T10:35:49.916Z,44.50
2023-05-31T10:36:49.230Z,41.19
2023-05-31T10:37:49.190Z,33.81
2023-05-31T10:38:49.206Z,76.79
2023-05-31T10:39:49.164Z,64.26
2023-05-31T10:40:49.145Z,37.56
2023-05-31T10:41:49.145Z,29.78
2023-05-31T10:42:49.124Z,85.17
2023-05-31T10:43:49.160Z,29.11
2023-05-31T10:44:49.140Z,93.27
2023-05-31T10:45:49.149Z,89.29
2023-05-31T10:46:49.315Z,48.24
2023-05-31T10:47:49.097Z,100.20
2023-05-31T10:48:49.105Z,47.18
2023-05-31T10:49:49.087Z,90.98
2023-05-31T10:50:49.089Z,113.94
2023-05-31T10:51:49.084Z,125.13
2023-05-31T10:52:49.231Z,157.58
2023-05-31T10:53:49.136Z,173.32
2023-05-31T10:54:49.152Z,62.12
2023-05-31T10:55:49.254Z,93.25
2023-05-31T10:56:49.335Z,147.48
2023-05-31T10:57:49.749Z,78.51
2023-05-31T10:58:49.442Z,144.03
2023-05-31T10:59:49.493Z,177.72
2023-05-31T11:00:49.554Z,168.79
2023-05-31T11:01:49.570Z,139.78
2023-05-31T11:02:49.872Z,160.16
2023-05-31T11:03:49.747Z,159.66
2023-05-31T11:04:49.728Z,142.92
2023-05-31T11:05:49.760Z,151.91
2023-05-31T11:06:49.822Z,145.60
2023-05-31T11:07:50.302Z,154.18
2023-05-31T11:08:49.858Z,167.48
2023-05-31T11:09:49.894Z,150.72
2023-05-31T11:10:49.943Z,166.18
2023-05-31T11:11:49.961Z,160.39
2023-05-31T11:12:50.278Z,172.37
2023-05-31T11:13:50.019Z,179.75
2023-05-31T11:14:50.032Z,174.18
2023-05-31T11:15:50.098Z,157.05
2023-05-31T11:16:50.181Z,152.03
2023-05-31T11:17:50.252Z,140.11
2023-05-31T11:18:50.094Z,141.29
2023-05-31T11:19:50.108Z,128.47
2023-05-31T11:20:50.245Z,125.44
2023-05-31T11:21:50.128Z,98.51
2023-05-31T11:22:50.221Z,149.34
2023-05-31T11:23:50.128Z,150.16
2023-05-31T11:24:50.136Z,155.89
2023-05-31T11:25:50.164Z,151.09
2023-05-31T11:26:50.180Z,139.75
2023-05-31T11:27:50.157Z,163.30
2023-05-31T11:28:50.145Z,114.22
2023-05-31T11:29:50.142Z,140.50
2023-05-31T11:30:50.151Z,152.90
2023-05-31T11:31:50.193Z,146.54
2023-05-31T11:32:50.283Z,136.39
2023-05-31T11:33:58.035Z,146.46
2023-05-31T11:34:51.187Z,146.53
2023-05-31T11:35:50.198Z,146.59
2023-05-31T11:36:50.141Z,149.80
2023-05-31T11:37:50.283Z,176.38
2023-05-31T11:38:50.147Z,215.79
2023-05-31T11:39:50.178Z,226.80
2023-05-31T11:40:50.160Z,224.96
2023-05-31T11:41:50.095Z,213.77
2023-05-31T11:42:50.269Z,214.57
2023-05-31T11:43:50.128Z,216.64
2023-05-31T11:44:50.049Z,201.74
2023-05-31T11:45:50.057Z,189.22
2023-05-31T11:46:50.091Z,169.68
2023-05-31T11:47:50.371Z,180.79
2023-05-31T11:48:50.053Z,154.61
2023-05-31T11:49:50.057Z,174.76
2023-05-31T11:50:50.036Z,161.74
2023-05-31T11:51:50.029Z,152.45
2023-05-31T11:52:50.238Z,152.44
2023-05-31T11:53:50.014Z,103.27
2023-05-31T11:54:50.379Z,112.21
2023-05-31T11:55:50.005Z,119.80
2023-05-31T11:56:49.987Z,131.36
2023-05-31T11:57:50.235Z,120.04
2023-05-31T11:58:49.981Z,93.77
2023-05-31T11:59:49.974Z,92.24
2023-05-31T12:00:49.954Z,122.70
2023-05-31T12:01:49.971Z,120.38
2023-05-31T12:02:50.109Z,82.29
2023-05-31T12:03:50.125Z,99.53
2023-05-31T12:04:50.208Z,85.84
2023-05-31T12:05:50.100Z,106.08
2023-05-31T12:06:50.146Z,121.24
2023-05-31T12:07:50.296Z,126.54
2023-05-31T12:08:50.217Z,76.99
2023-05-31T12:09:50.270Z,109.70
2023-05-31T12:10:50.268Z,48.29
2023-05-31T12:11:50.319Z,112.97
2023-05-31T12:12:50.770Z,117.63
2023-05-31T12:13:50.417Z,115.18
2023-05-31T12:14:50.444Z,115.73
2023-05-31T12:15:50.500Z,125.70
2023-05-31T12:16:50.507Z,109.86
2023-05-31T12:17:50.988Z,122.44
2023-05-31T12:18:50.545Z,122.94
2023-05-31T12:19:50.615Z,112.80
2023-05-31T12:20:50.858Z,127.38
2023-05-31T12:21:50.712Z,109.16
2023-05-31T12:22:50.737Z,99.66
2023-05-31T12:23:50.777Z,126.69
2023-05-31T12:24:50.808Z,111.95
2023-05-31T12:25:50.918Z,87.84
2023-05-31T12:26:50.904Z,118.38
2023-05-31T12:27:50.941Z,125.04
2023-05-31T12:28:50.976Z,80.48
2023-05-31T12:29:51.023Z,125.39
2023-05-31T12:30:51.045Z,132.46
2023-05-31T12:31:51.198Z,126.88
2023-05-31T12:32:51.147Z,134.48
2023-05-31T12:33:51.195Z,131.35
2023-05-31T12:34:51.272Z,121.15
2023-05-31T12:35:51.256Z,130.25
2023-05-31T12:36:51.334Z,127.21
2023-05-31T12:37:51.801Z,122.53
2023-05-31T12:38:51.446Z,93.79
2023-05-31T12:39:51.443Z,114.13
2023-05-31T12:40:51.516Z,115.43
2023-05-31T12:41:51.561Z,121.14